Time;durP1;ratioP1;P1;durP2;ratioP2;P2;SDS_P1;SDS_P2;PMS_P1;PMS_P2;Temp;Humidity;BMP_temperature;BMP_pressure;BME280_temperature;BME280_humidity;BME280_pressure;Samples;Min_cycle;Max_cycle;Signal;HPM_P1;HPM_P2
2022/10/30 00:01:48;;;;;;;8.55;3.38;;;;;;;13.76;89.68;97695.22;5061793;28;20072;-59
2022/10/30 00:04:15;;;;;;;12.32;3.78;;;;;;;13.72;89.98;97685.13;5060219;28;20079;-58
2022/10/30 00:06:41;;;;;;;11.07;3.50;;;;;;;13.76;89.53;97689.78;5066008;28;20470;-58
2022/10/30 00:09:09;;;;;;;11.63;3.60;;;;;;;13.75;89.70;97685.38;5066333;28;20086;-58
2022/10/30 00:11:36;;;;;;;9.57;3.22;;;;;;;13.83;89.05;97685.97;5065046;28;20203;-58
2022/10/30 00:14:02;;;;;;;11.98;3.28;;;;;;;14.05;87.43;97686.59;5066148;28;20551;-57
2022/10/30 00:16:28;;;;;;;8.07;3.58;;;;;;;14.21;86.15;97680.38;5066407;28;20098;-59
2022/10/30 00:18:55;;;;;;;11.63;3.17;;;;;;;14.40;84.74;97686.16;5064875;28;20048;-58
2022/10/30 00:21:21;;;;;;;9.90;3.58;;;;;;;14.58;83.28;97684.81;5065885;28;20553;-58
2022/10/30 00:23:51;;;;;;;10.43;4.20;;;;;;;14.67;82.33;97685.91;5066209;28;20040;-58
2022/10/30 00:26:21;;;;;;;9.52;3.50;;;;;;;14.98;80.16;97687.06;5066356;28;20040;-57
2022/10/30 00:28:51;;;;;;;8.85;3.28;;;;;;;15.12;79.10;97679.97;5066140;28;20045;-58
2022/10/30 00:31:18;;;;;;;10.93;3.53;;;;;;;15.40;77.10;97682.38;5045243;28;20455;-57
2022/10/30 00:33:52;;;;;;;11.13;2.72;;;;;;;15.50;76.29;97676.91;5053961;28;20210;-55
2022/10/30 00:36:19;;;;;;;12.27;3.47;;;;;;;15.58;75.61;97676.34;5065817;28;20076;-57
2022/10/30 00:38:46;;;;;;;10.73;3.47;;;;;;;15.57;75.47;97676.59;5065673;28;20086;-57
2022/10/30 00:41:17;;;;;;;9.35;3.28;;;;;;;15.61;74.75;97674.97;5061623;28;20040;-56
2022/10/30 00:43:44;;;;;;;6.60;2.55;;;;;;;15.68;74.09;97686.41;5054314;28;20411;-55
2022/10/30 00:46:24;;;;;;;9.07;2.53;;;;;;;15.76;73.17;97686.91;5070265;28;20098;-58
2022/10/30 00:49:02;;;;;;;9.25;2.83;;;;;;;15.79;73.23;97683.63;5069357;28;20064;-58
2022/10/30 00:51:30;;;;;;;7.97;3.03;;;;;;;15.78;73.54;97682.84;5069303;28;20067;-57
2022/10/30 00:53:59;;;;;;;13.70;2.95;;;;;;;15.52;75.54;97688.34;5069325;28;20044;-57
2022/10/30 00:56:26;;;;;;;8.10;2.80;;;;;;;15.36;76.52;97690.28;5069109;28;20041;-58
2022/10/30 00:59:01;;;;;;;10.35;3.90;;;;;;;15.19;77.64;97688.66;5068037;28;20342;-58
2022/10/30 01:01:31;;;;;;;7.50;3.15;;;;;;;15.17;78.28;97685.41;5067991;28;20044;-58
2022/10/30 01:04:00;;;;;;;11.02;3.22;;;;;;;15.08;78.52;97687.88;5057042;28;20127;-58
2022/10/30 01:06:28;;;;;;;9.93;2.90;;;;;;;14.94;79.38;97684.91;5068223;28;20094;-58
2022/10/30 01:08:55;;;;;;;9.57;3.00;;;;;;;14.32;84.31;97684.78;5069287;28;20128;-58
2022/10/30 01:11:26;;;;;;;10.32;3.13;;;;;;;14.42;84.00;97679.34;5066955;28;20050;-59
2022/10/30 01:13:55;;;;;;;7.80;3.15;;;;;;;14.41;83.40;97674.19;5068091;28;20575;-58
2022/10/30 01:16:38;;;;;;;10.00;2.90;;;;;;;13.87;87.05;97674.31;5068817;28;20072;-58
2022/10/30 01:19:33;;;;;;;14.10;4.07;;;;;;;13.58;89.45;97676.59;5068656;28;20419;-58
2022/10/30 01:22:22;;;;;;;16.13;3.90;;;;;;;13.25;91.88;97665.78;5067327;28;20090;-58
2022/10/30 01:25:24;;;;;;;12.85;4.00;;;;;;;13.20;91.98;97669.28;5067587;28;20511;-58
2022/10/30 01:28:06;;;;;;;9.98;3.28;;;;;;;13.13;92.85;97671.41;5067622;28;20148;-57
2022/10/30 01:30:46;;;;;;;13.23;3.47;;;;;;;12.96;94.08;97668.84;5067078;28;20037;-58
2022/10/30 01:33:34;;;;;;;10.25;3.80;;;;;;;13.03;93.85;97663.19;5052407;28;20045;-58
2022/10/30 01:36:27;;;;;;;9.30;4.03;;;;;;;13.12;93.28;97670.59;5067256;28;20131;-57
2022/10/30 01:39:16;;;;;;;10.68;3.95;;;;;;;13.02;94.06;97670.53;5068553;28;20033;-58
2022/10/30 01:41:44;;;;;;;14.50;3.88;;;;;;;13.21;92.94;97661.94;5066935;28;20040;-58
2022/10/30 01:44:26;;;;;;;9.30;2.92;;;;;;;13.35;91.09;97654.94;5066838;28;20059;-58
2022/10/30 01:47:11;;;;;;;7.82;3.38;;;;;;;13.23;92.42;97655.16;5068537;28;20119;-57
2022/10/30 01:50:06;;;;;;;7.53;3.47;;;;;;;13.00;94.46;97667.25;5066237;28;20055;-58
2022/10/30 01:52:58;;;;;;;9.63;3.58;;;;;;;12.95;94.34;97659.06;5063318;28;20033;-57
2022/10/30 01:55:40;;;;;;;13.15;3.53;;;;;;;13.10;93.25;97647.47;5065753;28;20075;-57
2022/10/30 01:58:26;;;;;;;9.25;3.17;;;;;;;13.23;91.98;97647.00;5069303;28;20505;-58
2022/10/30 02:00:57;;;;;;;9.48;3.30;;;;;;;13.19;92.29;97645.88;5058985;28;20842;-58
2022/10/30 02:03:25;;;;;;;13.07;3.57;;;;;;;13.14;92.29;97657.56;5059329;28;20029;-58
2022/10/30 02:05:52;;;;;;;9.48;3.65;;;;;;;13.08;92.71;97650.44;5057931;28;20827;-58
2022/10/30 02:08:21;;;;;;;9.40;3.75;;;;;;;13.10;92.78;97647.47;5066201;28;20056;-58
2022/10/30 02:10:51;;;;;;;10.50;3.35;;;;;;;13.17;92.04;97642.63;5065628;28;20124;-58
2022/10/30 02:13:29;;;;;;;10.07;2.80;;;;;;;13.18;91.75;97648.88;5059489;28;20047;-58
2022/10/30 02:15:57;;;;;;;12.55;3.83;;;;;;;13.10;92.26;97647.47;5060880;28;20044;-58
2022/10/30 02:18:24;;;;;;;13.32;3.53;;;;;;;13.09;92.45;97640.41;5049409;28;20082;-57
2022/10/30 02:20:50;;;;;;;11.38;3.63;;;;;;;13.01;93.27;97634.38;5066021;28;20436;-58
2022/10/30 02:23:18;;;;;;;8.02;3.65;;;;;;;12.93;93.71;97647.63;5058494;28;20037;-58
2022/10/30 02:25:44;;;;;;;10.70;3.20;;;;;;;12.77;94.78;97639.34;5066505;28;20438;-57
2022/10/30 02:28:11;;;;;;;12.00;3.08;;;;;;;12.70;95.72;97634.16;5065869;28;20044;-59
2022/10/30 02:30:42;;;;;;;7.20;3.30;;;;;;;12.55;96.44;97632.13;5065941;28;20052;-60
2022/10/30 02:33:09;;;;;;;9.93;3.35;;;;;;;12.35;97.82;97630.84;5052806;28;20480;-58
2022/10/30 02:35:36;;;;;;;11.38;3.10;;;;;;;12.36;97.81;97640.63;5065900;28;20072;-58
2022/10/30 02:38:02;;;;;;;10.27;3.40;;;;;;;12.34;97.34;97631.94;5065796;28;20400;-58
2022/10/30 02:40:29;;;;;;;10.27;3.22;;;;;;;12.49;95.89;97635.84;5065691;28;20084;-58
2022/10/30 02:42:55;;;;;;;10.25;3.13;;;;;;;12.76;92.91;97635.00;5064636;28;20072;-58
2022/10/30 02:45:22;;;;;;;13.95;3.55;;;;;;;12.92;91.42;97635.09;5067309;28;20044;-57
2022/10/30 02:47:48;;;;;;;13.75;4.00;;;;;;;13.21;89.22;97629.31;5067497;28;20040;-56
2022/10/30 02:50:15;;;;;;;13.18;3.30;;;;;;;13.47;87.44;97626.72;5064537;28;20074;-58
2022/10/30 02:52:42;;;;;;;8.07;2.85;;;;;;;13.65;85.60;97631.75;5065712;28;20040;-58
2022/10/30 02:55:09;;;;;;;9.13;3.20;;;;;;;13.83;83.70;97632.38;5066930;28;20557;-58
2022/10/30 02:57:36;;;;;;;11.52;2.42;;;;;;;13.93;83.51;97630.75;5066463;28;20059;-57
2022/10/30 03:00:04;;;;;;;10.23;3.53;;;;;;;14.01;83.37;97630.25;5065711;28;20102;-58
2022/10/30 03:02:30;;;;;;;13.85;3.67;;;;;;;14.03;83.27;97630.78;5054301;28;20106;-57
2022/10/30 03:04:58;;;;;;;9.45;3.22;;;;;;;14.05;83.25;97634.88;5059865;28;20478;-56
2022/10/30 03:07:24;;;;;;;16.45;3.35;;;;;;;13.95;83.54;97629.41;5064723;28;20069;-58
2022/10/30 03:09:53;;;;;;;8.40;3.08;;;;;;;13.95;83.41;97629.41;5066631;28;20076;-58
2022/10/30 03:12:20;;;;;;;7.60;2.67;;;;;;;13.96;83.19;97632.97;5066548;28;20141;-58
2022/10/30 03:14:47;;;;;;;9.00;2.97;;;;;;;13.86;83.34;97626.38;5067067;28;20072;-58
2022/10/30 03:17:13;;;;;;;12.98;3.53;;;;;;;13.85;83.02;97630.19;5065433;28;20507;-57
2022/10/30 03:19:40;;;;;;;9.73;2.83;;;;;;;13.80;83.19;97627.47;5065778;28;20075;-58
2022/10/30 03:22:07;;;;;;;10.20;3.13;;;;;;;13.79;83.14;97631.28;5065200;28;20051;-58
2022/10/30 03:24:37;;;;;;;9.43;3.42;;;;;;;13.76;83.19;97629.06;5064625;28;20044;-58
2022/10/30 03:27:03;;;;;;;11.20;2.80;;;;;;;13.85;82.25;97630.19;5065281;28;20047;-59
2022/10/30 03:29:30;;;;;;;10.43;3.08;;;;;;;13.77;82.86;97628.81;5066323;28;20040;-57
2022/10/30 03:31:56;;;;;;;8.30;2.83;;;;;;;13.76;82.33;97634.50;5059157;28;20574;-58
2022/10/30 03:34:28;;;;;;;11.82;2.92;;;;;;;13.70;82.61;97633.66;5049639;28;20530;-58
2022/10/30 03:36:54;;;;;;;15.77;3.28;;;;;;;13.73;82.78;97638.59;5066902;28;20119;-56
2022/10/30 03:39:21;;;;;;;7.28;2.65;;;;;;;13.58;82.85;97631.19;5065057;28;20052;-57
2022/10/30 03:41:47;;;;;;;10.55;2.65;;;;;;;13.34;84.34;97638.94;5065069;28;20311;-57
2022/10/30 03:44:14;;;;;;;13.80;3.85;;;;;;;13.12;86.60;97640.69;5066848;28;20068;-58
2022/10/30 03:46:40;;;;;;;8.18;2.92;;;;;;;13.27;84.28;97636.44;5064648;28;20541;-58
2022/10/30 03:49:17;;;;;;;9.52;3.95;;;;;;;13.39;83.55;97645.19;5066737;28;20048;-58
2022/10/30 03:51:44;;;;;;;8.38;2.80;;;;;;;13.29;84.05;97636.16;5065940;28;20040;-59
2022/10/30 03:54:11;;;;;;;7.50;2.35;;;;;;;13.36;83.70;97647.63;5065060;28;20105;-59
2022/10/30 03:56:37;;;;;;;11.35;3.13;;;;;;;13.48;83.16;97639.28;5065200;28;20072;-58
2022/10/30 03:59:05;;;;;;;8.05;2.47;;;;;;;13.46;82.39;97636.00;5064515;28;20052;-58
2022/10/30 04:01:36;;;;;;;7.10;2.17;;;;;;;13.50;82.21;97640.66;5060751;28;20048;-58
2022/10/30 04:04:03;;;;;;;9.63;2.42;;;;;;;13.34;82.75;97641.66;5043861;28;20040;-58
2022/10/30 04:06:30;;;;;;;8.18;3.03;;;;;;;13.30;83.46;97643.25;5063692;28;20072;-58
2022/10/30 04:08:56;;;;;;;14.82;3.95;;;;;;;13.14;84.06;97637.72;5064506;28;20044;-58
2022/10/30 04:11:23;;;;;;;12.55;3.58;;;;;;;13.15;84.20;97644.78;5064074;28;20492;-55
2022/10/30 04:13:50;;;;;;;8.65;3.22;;;;;;;13.14;83.44;97648.59;5066001;28;20110;-58
2022/10/30 04:16:16;;;;;;;7.32;3.10;;;;;;;12.99;84.48;97639.25;5065594;28;20068;-58
2022/10/30 04:18:43;;;;;;;10.55;2.88;;;;;;;13.07;83.82;97643.38;5065746;28;20530;-58
2022/10/30 04:21:10;;;;;;;12.13;3.60;;;;;;;13.03;83.58;97647.69;5065029;28;20476;-57
2022/10/30 04:23:37;;;;;;;7.60;3.10;;;;;;;13.00;84.11;97653.66;5047843;28;20040;-57
2022/10/30 04:26:03;;;;;;;10.02;3.05;;;;;;;13.01;83.63;97655.28;5064012;28;20098;-58
2022/10/30 04:28:31;;;;;;;11.35;3.15;;;;;;;12.80;85.50;97654.31;5064441;28;20584;-58
2022/10/30 04:30:57;;;;;;;13.95;3.53;;;;;;;12.62;87.22;97648.19;5065091;28;20037;-58
2022/10/30 04:33:24;;;;;;;9.93;2.90;;;;;;;12.37;88.37;97652.31;5049284;28;20057;-58
2022/10/30 04:35:53;;;;;;;10.60;3.40;;;;;;;11.61;94.09;97651.19;5063253;28;20452;-56
2022/10/30 04:38:20;;;;;;;11.88;4.53;;;;;;;11.19;97.30;97650.63;5063892;28;20432;-56
2022/10/30 04:40:47;;;;;;;9.68;3.50;;;;;;;11.13;98.18;97657.03;5063829;28;20102;-57
2022/10/30 04:43:14;;;;;;;14.07;3.45;;;;;;;11.11;98.26;97653.75;5064196;28;20507;-57
2022/10/30 04:45:45;;;;;;;10.10;3.40;;;;;;;11.09;98.42;97650.47;5061124;28;20140;-58
2022/10/30 04:48:17;;;;;;;16.30;5.15;;;;;;;11.03;98.81;97655.00;5065618;28;20050;-58
2022/10/30 04:50:45;;;;;;;13.95;3.78;;;;;;;10.98;99.00;97647.59;5060896;28;20037;-58
2022/10/30 04:53:20;;;;;;;17.65;4.07;;;;;;;10.87;100.00;97649.34;5063942;28;20436;-58
2022/10/30 04:55:53;;;;;;;12.00;4.20;;;;;;;10.72;100.00;97649.91;5063832;28;20044;-58
2022/10/30 04:58:19;;;;;;;13.80;4.03;;;;;;;10.74;100.00;97650.50;5047834;28;20049;-57
2022/10/30 05:00:51;;;;;;;;;;;;;;;10.89;100.00;97654.50;5063626;28;20048;-58
2022/10/30 05:03:21;;;;;;;10.60;3.65;;;;;;;10.96;99.26;97647.03;5063452;28;20414;-59
2022/10/30 05:05:56;;;;;;;11.25;3.03;;;;;;;11.17;97.24;97653.56;5063890;28;20048;-58
2022/10/30 05:08:22;;;;;;;9.32;2.75;;;;;;;11.51;94.43;97649.97;5062249;28;20105;-57
2022/10/30 05:10:49;;;;;;;11.85;3.40;;;;;;;11.73;92.60;97651.88;5063237;28;20044;-58
2022/10/30 05:13:16;;;;;;;10.88;3.67;;;;;;;11.89;90.55;97647.44;5065091;28;20040;-58
2022/10/30 05:15:42;;;;;;;10.85;3.00;;;;;;;12.02;89.53;97648.94;5063756;28;20052;-58
2022/10/30 05:18:09;;;;;;;8.20;2.80;;;;;;;12.20;88.21;97636.16;5062487;28;20079;-58
2022/10/30 05:20:35;;;;;;;10.02;3.15;;;;;;;12.31;87.58;97640.56;5062615;28;20040;-58
2022/10/30 05:23:02;;;;;;;10.80;2.78;;;;;;;12.33;87.04;97632.19;5047353;28;20036;-58
2022/10/30 05:25:29;;;;;;;8.82;3.13;;;;;;;12.35;86.83;97630.03;5063469;28;20037;-58
2022/10/30 05:27:58;;;;;;;11.32;2.97;;;;;;;12.37;86.64;97627.88;5065270;28;20094;-56
2022/10/30 05:30:30;;;;;;;10.27;2.78;;;;;;;12.31;87.16;97621.56;5064361;28;20041;-57
2022/10/30 05:33:06;;;;;;;10.70;2.75;;;;;;;12.17;87.54;97632.03;5053847;28;20287;-56
2022/10/30 05:35:34;;;;;;;11.13;2.95;;;;;;;12.23;86.48;97632.91;5053356;28;20051;-58
2022/10/30 05:38:04;;;;;;;8.23;2.47;;;;;;;12.19;86.58;97627.16;5068497;28;20302;-58
2022/10/30 05:40:32;;;;;;;11.57;3.33;;;;;;;12.09;87.54;97632.50;5066962;28;20047;-59
2022/10/30 05:42:59;;;;;;;10.07;2.60;;;;;;;12.00;88.03;97642.13;5068706;28;20064;-59
2022/10/30 05:45:27;;;;;;;13.45;3.88;;;;;;;12.15;86.99;97636.06;5067124;28;20127;-56
2022/10/30 05:48:01;;;;;;;13.32;3.17;;;;;;;12.21;86.36;97633.16;5067541;28;20049;-58
2022/10/30 05:50:32;;;;;;;8.60;3.17;;;;;;;12.23;86.48;97632.91;5066480;28;20052;-58
2022/10/30 05:53:13;;;;;;;6.03;2.72;;;;;;;12.30;86.29;97633.53;5066793;28;20315;-58
2022/10/30 05:55:40;;;;;;;9.93;2.75;;;;;;;12.04;87.71;97635.94;5067274;28;20477;-58
2022/10/30 05:58:12;;;;;;;8.43;2.83;;;;;;;12.05;87.77;97642.19;5066920;28;20055;-56
2022/10/30 06:00:43;;;;;;;10.43;3.17;;;;;;;11.95;88.26;97646.41;5064113;28;20044;-53
2022/10/30 06:03:13;;;;;;;12.85;2.92;;;;;;;11.84;89.21;97641.97;5055995;28;20145;-58
2022/10/30 06:05:44;;;;;;;13.00;3.85;;;;;;;11.83;89.31;97632.16;5061803;28;20090;-58
2022/10/30 06:08:12;;;;;;;7.47;3.33;;;;;;;11.84;89.24;97641.97;5062679;28;20040;-58
2022/10/30 06:10:38;;;;;;;12.60;3.70;;;;;;;11.55;90.90;97648.41;5065004;28;20273;-58
2022/10/30 06:13:19;;;;;;;10.07;3.88;;;;;;;11.27;92.74;97647.47;5060579;28;20573;-58
2022/10/30 06:15:55;;;;;;;8.75;4.07;;;;;;;11.18;93.71;97641.66;5061802;28;20383;-58
2022/10/30 06:18:23;;;;;;;8.95;4.15;;;;;;;11.26;93.00;97639.59;5060523;28;20488;-58
2022/10/30 06:20:55;;;;;;;6.13;2.70;;;;;;;11.33;92.50;97637.53;5062484;28;20094;-56
2022/10/30 06:23:25;;;;;;;10.48;2.97;;;;;;;11.29;92.67;97642.66;5064290;28;20555;-58
2022/10/30 06:26:11;;;;;;;9.98;3.60;;;;;;;11.23;93.00;97645.50;5054073;28;20133;-58
2022/10/30 06:28:42;;;;;;;8.30;3.90;;;;;;;11.15;93.75;97644.06;5063371;28;20132;-56
2022/10/30 06:31:11;;;;;;;7.97;3.42;;;;;;;11.10;93.77;97647.53;5063867;28;20507;-58
2022/10/30 06:33:38;;;;;;;9.98;2.90;;;;;;;11.03;94.46;97644.16;5060342;28;20110;-58
2022/10/30 06:36:05;;;;;;;12.57;3.58;;;;;;;11.08;94.36;97654.22;5052321;28;20507;-58
2022/10/30 06:38:31;;;;;;;10.63;3.78;;;;;;;10.98;94.94;97649.50;5065858;28;20044;-57
2022/10/30 06:40:58;;;;;;;10.93;3.58;;;;;;;10.96;95.11;97649.75;5065559;28;20048;-57
2022/10/30 06:44:04;;;;;;;14.63;3.65;;;;;;;11.08;94.44;97660.50;5066814;28;20102;-58
2022/10/30 06:46:32;;;;;;;8.90;3.28;;;;;;;11.16;94.10;97654.66;5065593;28;20051;-58
2022/10/30 06:48:59;;;;;;;10.73;3.05;;;;;;;11.16;94.07;97651.09;5067107;28;20040;-58
2022/10/30 06:51:27;;;;;;;9.68;3.40;;;;;;;11.23;93.71;97657.19;5072004;28;20045;-58
2022/10/30 06:53:53;;;;;;;9.68;3.47;;;;;;;11.23;94.03;97656.34;5066198;28;20036;-57
2022/10/30 06:56:37;;;;;;;8.23;3.85;;;;;;;11.28;93.55;97657.25;5067060;28;20229;-59
2022/10/30 06:59:36;;;;;;;14.05;3.17;;;;;;;11.40;92.81;97661.75;5066963;28;20527;-58
2022/10/30 07:02:21;;;;;;;11.93;3.47;;;;;;;11.40;92.85;97656.34;5057608;28;20053;-57
2022/10/30 07:04:55;;;;;;;7.28;2.95;;;;;;;11.53;92.09;97657.84;5061289;28;20527;-58
2022/10/30 07:07:22;;;;;;;13.02;5.18;;;;;;;11.69;90.66;97670.53;5055682;28;20072;-57
2022/10/30 07:09:48;;;;;;;6.50;2.60;;;;;;;11.84;89.98;97661.75;5046989;28;20041;-57
2022/10/30 07:12:19;;;;;;;13.55;3.83;;;;;;;11.88;89.64;97659.38;5060746;28;20569;-57
2022/10/30 07:14:58;;;;;;;10.75;2.75;;;;;;;11.99;89.15;97665.75;5065308;28;20094;-57
2022/10/30 07:17:33;;;;;;;11.95;3.78;;;;;;;12.01;88.90;97662.78;5065437;28;20068;-57
2022/10/30 07:20:06;;;;;;;7.60;3.13;;;;;;;12.05;89.16;97664.75;5066464;28;20044;-57
2022/10/30 07:22:37;;;;;;;9.35;3.13;;;;;;;12.15;88.31;97658.63;5065147;28;20045;-58
2022/10/30 07:25:04;;;;;;;10.48;2.88;;;;;;;12.63;84.91;97662.63;5065397;28;20110;-58
2022/10/30 07:27:51;;;;;;;8.02;3.05;;;;;;;12.76;84.24;97659.47;5065433;28;20131;-58
2022/10/30 07:30:28;;;;;;;5.75;2.47;;;;;;;12.83;84.45;97659.25;5064659;28;20071;-59
2022/10/30 07:33:18;;;;;;;11.38;3.17;;;;;;;12.84;84.81;97661.69;5051914;28;20527;-58
2022/10/30 07:35:59;;;;;;;11.15;3.00;;;;;;;13.04;83.14;97662.13;5064885;28;20059;-58
2022/10/30 07:38:52;;;;;;;10.93;3.40;;;;;;;13.27;82.07;97667.16;5060428;28;20115;-58
2022/10/30 07:41:29;;;;;;;8.70;4.00;;;;;;;13.40;81.57;97654.19;5061332;28;20137;-58
2022/10/30 07:44:31;;;;;;;10.23;2.78;;;;;;;13.49;82.91;97662.69;5063308;28;20097;-58
2022/10/30 07:47:11;;;;;;;8.23;3.67;;;;;;;13.56;82.70;97659.75;5061931;28;20059;-57
2022/10/30 07:49:53;;;;;;;9.68;2.88;;;;;;;13.74;80.65;97664.72;5074180;28;20052;-61
2022/10/30 07:52:20;;;;;;;10.63;2.50;;;;;;;13.82;80.40;97663.38;5055011;28;20042;-59
2022/10/30 07:54:47;;;;;;;10.52;2.83;;;;;;;13.87;80.57;97663.41;5057884;28;20136;-59
2022/10/30 07:57:39;;;;;;;11.32;3.55;;;;;;;13.94;80.74;97659.63;5056485;28;20059;-58
2022/10/30 08:00:40;;;;;;;9.63;3.00;;;;;;;14.20;79.05;97667.88;5062931;28;20389;-58
2022/10/30 08:03:17;;;;;;;7.97;2.92;;;;;;;14.42;78.33;97664.91;5054257;28;20046;-58
2022/10/30 08:05:48;;;;;;;;;;;;;;;14.62;76.14;97664.13;5062816;28;20474;-59
2022/10/30 08:08:31;;;;;;;8.10;2.45;;;;;;;14.87;74.87;97662.53;5052885;28;19924;-58
2022/10/30 08:11:16;;;;;;;8.52;2.88;;;;;;;14.96;75.11;97660.06;5059547;28;20392;-58
2022/10/30 08:13:42;;;;;;;9.77;2.33;;;;;;;15.16;73.32;97672.06;5062338;28;20442;-58
2022/10/30 08:16:09;;;;;;;11.00;2.88;;;;;;;15.29;72.70;97662.50;5055804;28;20040;-58
2022/10/30 08:18:37;;;;;;;8.27;2.58;;;;;;;15.43;72.43;97670.91;5061652;28;20040;-57
2022/10/30 08:21:04;;;;;;;7.93;2.38;;;;;;;15.53;71.64;97673.63;5051406;28;20044;-58
2022/10/30 08:23:31;;;;;;;7.90;2.63;;;;;;;15.65;71.75;97667.03;5055423;28;20091;-57
2022/10/30 08:26:04;;;;;;;6.22;2.10;;;;;;;15.76;70.97;97667.81;5064857;28;20040;-57
2022/10/30 08:28:34;;;;;;;9.45;2.75;;;;;;;15.80;71.30;97669.72;5064577;28;20067;-60
2022/10/30 08:31:04;;;;;;;9.88;2.85;;;;;;;15.86;71.22;97668.56;5064091;28;20044;-57
2022/10/30 08:34:04;;;;;;;6.32;2.65;;;;;;;15.97;71.11;97663.13;5044249;28;20060;-57
2022/10/30 08:36:31;;;;;;;10.90;3.40;;;;;;;16.08;71.04;97667.44;5049787;28;20102;-57
2022/10/30 08:38:57;;;;;;;7.30;2.42;;;;;;;16.23;70.90;97672.00;5064336;28;20106;-56
2022/10/30 08:41:50;;;;;;;8.65;2.22;;;;;;;16.32;70.32;97665.91;5063530;28;20068;-57
2022/10/30 08:44:18;;;;;;;5.90;2.15;;;;;;;16.35;69.90;97660.72;5061122;28;20037;-57
2022/10/30 08:47:05;;;;;;;6.15;2.35;;;;;;;16.59;66.23;97665.47;5060989;28;20057;-58
2022/10/30 08:49:35;;;;;;;10.77;2.63;;;;;;;16.77;66.86;97668.66;5046799;28;20076;-57
2022/10/30 08:52:02;;;;;;;9.65;2.38;;;;;;;17.01;65.49;97660.50;5063308;28;20045;-57
2022/10/30 08:54:28;;;;;;;5.05;1.63;;;;;;;17.09;64.26;97661.84;5065364;28;20048;-59
2022/10/30 08:56:55;;;;;;;10.30;1.85;;;;;;;17.34;63.16;97659.13;5058931;28;20052;-57
2022/10/30 08:59:22;;;;;;;7.07;2.30;;;;;;;17.56;61.99;97658.63;5062528;28;20047;-58
2022/10/30 09:01:51;;;;;;;7.45;2.30;;;;;;;17.68;61.75;97663.69;5057395;28;20068;-58
2022/10/30 09:04:18;;;;;;;8.35;2.30;;;;;;;17.76;63.79;97657.56;5053390;28;20406;-57
2022/10/30 09:07:19;;;;;;;6.28;2.13;;;;;;;17.85;61.20;97657.75;5052311;28;20103;-57
2022/10/30 09:09:46;;;;;;;7.15;2.47;;;;;;;18.12;60.34;97656.34;5050739;28;20063;-57
2022/10/30 09:12:12;;;;;;;12.43;2.85;;;;;;;18.06;60.74;97652.03;5053815;28;20102;-59
2022/10/30 09:14:42;;;;;;;8.35;2.92;;;;;;;18.01;60.62;97663.84;5063756;28;20322;-58
2022/10/30 09:17:10;;;;;;;9.95;2.28;;;;;;;18.10;59.05;97657.75;5060873;28;20044;-58
2022/10/30 09:19:39;;;;;;;7.15;1.75;;;;;;;18.31;58.09;97655.53;5059892;28;20128;-57
2022/10/30 09:22:05;;;;;;;5.10;1.52;;;;;;;18.72;55.57;97660.41;5060807;28;20040;-58
2022/10/30 09:24:39;;;;;;;6.88;2.40;;;;;;;18.75;54.92;97663.69;5058700;28;20049;-58
2022/10/30 09:27:24;;;;;;;6.28;2.35;;;;;;;18.80;55.28;97661.63;5062950;28;20482;-58
2022/10/30 09:29:54;;;;;;;5.47;1.98;;;;;;;18.85;53.03;97669.00;5055087;28;20048;-58
2022/10/30 09:32:23;;;;;;;7.50;1.65;;;;;;;19.05;53.08;97667.84;5055673;28;20440;-59
2022/10/30 09:35:19;;;;;;;5.47;1.42;;;;;;;18.98;53.30;97665.47;5062113;28;20102;-58
2022/10/30 09:37:45;;;;;;;5.55;1.65;;;;;;;19.03;52.14;97661.84;5064893;28;20055;-58
2022/10/30 09:40:33;;;;;;;2.87;1.10;;;;;;;19.04;51.90;97663.47;5064523;28;20059;-58
2022/10/30 09:43:12;;;;;;;4.55;1.75;;;;;;;19.07;51.08;97662.91;5064971;28;20072;-60
2022/10/30 09:46:01;;;;;;;4.20;1.80;;;;;;;19.09;51.81;97659.84;5064833;28;20036;-60
2022/10/30 09:48:42;;;;;;;6.40;1.77;;;;;;;19.13;52.32;97660.88;5057256;28;20133;-59
2022/10/30 09:51:41;;;;;;;6.22;1.70;;;;;;;19.20;51.61;97665.97;5062696;28;20060;-58
2022/10/30 09:54:37;;;;;;;4.22;1.20;;;;;;;19.28;50.90;97665.28;5051620;28;20039;-59
2022/10/30 09:57:24;;;;;;;6.60;1.60;;;;;;;19.50;49.72;97663.78;5056625;28;20044;-58
2022/10/30 10:00:02;;;;;;;3.65;1.52;;;;;;;19.55;49.33;97674.66;5053368;28;20053;-58
2022/10/30 10:02:29;;;;;;;5.35;1.55;;;;;;;19.62;49.76;97668.78;5058413;28;20049;-59
2022/10/30 10:05:01;;;;;;;6.72;2.03;;;;;;;19.70;48.12;97664.50;5053400;28;20037;-58
2022/10/30 10:08:01;;;;;;;6.80;1.83;;;;;;;19.81;51.19;97670.59;5053572;28;20052;-58
2022/10/30 10:10:51;;;;;;;7.05;1.60;;;;;;;19.85;50.17;97669.69;5070434;28;20294;-59
2022/10/30 10:13:32;;;;;;;2.88;1.25;;;;;;;19.88;49.79;97665.50;5059258;28;20082;-58
2022/10/30 10:16:09;;;;;;;6.75;1.52;;;;;;;19.92;51.39;97671.19;5051259;28;20082;-58
2022/10/30 10:18:50;;;;;;;4.13;1.17;;;;;;;19.98;52.33;97673.56;5059311;28;20519;-59
2022/10/30 10:21:25;;;;;;;7.20;1.73;;;;;;;20.03;53.65;97672.66;5064154;28;20661;-59
2022/10/30 10:23:55;;;;;;;7.10;2.20;;;;;;;20.11;53.86;97673.84;5065611;28;20068;-59
2022/10/30 10:26:40;;;;;;;8.00;1.88;;;;;;;20.29;54.81;97674.84;5064005;28;20537;-58
2022/10/30 10:29:27;;;;;;;10.13;1.80;;;;;;;20.36;56.24;97672.50;5065696;28;20072;-58
2022/10/30 10:32:16;;;;;;;5.30;1.70;;;;;;;20.45;57.33;97671.78;5063853;28;20477;-57
2022/10/30 10:34:56;;;;;;;8.40;1.88;;;;;;;20.56;57.86;97661.34;5065858;28;20087;-58
2022/10/30 10:37:29;;;;;;;6.15;1.73;;;;;;;20.67;57.42;97670.97;5065505;28;20045;-60
2022/10/30 10:40:22;;;;;;;7.90;2.40;;;;;;;20.72;57.67;97665.38;5066148;28;20123;-59
2022/10/30 10:43:17;;;;;;;8.27;1.98;;;;;;;20.76;56.79;97662.78;5064951;28;20070;-59
2022/10/30 10:45:59;;;;;;;5.15;1.48;;;;;;;20.86;57.16;97664.47;5056049;28;20072;-59
2022/10/30 10:48:48;;;;;;;6.20;1.95;;;;;;;20.92;56.92;97660.50;5065438;28;20454;-59
2022/10/30 10:51:19;;;;;;;7.85;2.03;;;;;;;20.96;56.87;97658.75;5061844;28;20483;-58
2022/10/30 10:54:01;;;;;;;4.75;1.52;;;;;;;21.10;56.17;97660.59;5064757;28;20076;-59
2022/10/30 10:56:36;;;;;;;6.10;1.70;;;;;;;21.15;56.52;97650.28;5065498;28;20559;-60
2022/10/30 10:59:25;;;;;;;8.70;2.28;;;;;;;21.17;55.78;97659.06;5059373;28;20128;-59
2022/10/30 11:01:57;;;;;;;7.18;2.03;;;;;;;21.20;55.05;97652.09;5058286;28;20068;-59
2022/10/30 11:04:30;;;;;;;7.57;1.85;;;;;;;21.35;55.55;97650.88;5054191;28;20090;-59
2022/10/30 11:07:01;;;;;;;7.57;1.85;;;;;;;21.47;55.36;97647.53;5050736;28;20087;-59
2022/10/30 11:09:28;;;;;;;7.32;1.90;;;;;;;21.54;53.08;97647.06;5064052;28;20067;-59
2022/10/30 11:11:55;;;;;;;3.83;1.42;;;;;;;21.58;51.05;97637.03;5061784;28;20204;-60
2022/10/30 11:14:28;;;;;;;4.68;1.73;;;;;;;21.60;49.93;97640.28;5063963;28;20051;-60
2022/10/30 11:17:25;;;;;;;5.60;1.60;;;;;;;21.61;50.24;97646.59;5063880;28;20119;-60
2022/10/30 11:20:00;;;;;;;4.82;1.42;;;;;;;21.64;49.76;97640.47;5063715;28;20492;-59
2022/10/30 11:22:34;;;;;;;5.78;1.42;;;;;;;21.65;49.10;97639.31;5046382;28;20050;-59
2022/10/30 11:25:21;;;;;;;2.85;1.20;;;;;;;21.67;49.00;97637.06;5061168;28;20129;-60
2022/10/30 11:27:58;;;;;;;6.05;1.70;;;;;;;21.73;49.01;97632.25;5062214;28;20486;-61
2022/10/30 11:30:27;;;;;;;6.20;1.33;;;;;;;21.76;48.61;97640.69;5033364;28;20053;-58
2022/10/30 11:32:55;;;;;;;7.82;2.40;;;;;;;21.71;49.01;97635.31;5046178;28;20585;-58
2022/10/30 11:35:23;;;;;;;6.90;1.38;;;;;;;21.70;48.76;97634.47;5063867;28;20042;-59
2022/10/30 11:38:10;;;;;;;5.25;1.40;;;;;;;21.73;48.61;97632.25;5052579;28;20072;-61
2022/10/30 11:40:36;;;;;;;4.00;1.50;;;;;;;21.75;48.17;97635.50;5063770;28;20089;-59
2022/10/30 11:43:04;;;;;;;6.07;1.77;;;;;;;21.82;48.29;97633.09;5062309;28;20076;-59
2022/10/30 11:45:39;;;;;;;6.85;1.90;;;;;;;21.85;48.80;97626.94;5064735;28;20127;-59
2022/10/30 11:48:14;;;;;;;7.32;1.40;;;;;;;21.88;48.85;97629.06;5063615;28;20068;-59
2022/10/30 11:50:47;;;;;;;5.72;1.85;;;;;;;21.90;49.25;97631.50;5063653;28;20507;-60
2022/10/30 11:53:40;;;;;;;6.28;1.58;;;;;;;21.88;50.40;97623.53;5063777;28;20063;-59
2022/10/30 11:56:15;;;;;;;5.57;1.77;;;;;;;21.86;50.89;97631.34;5053119;28;20512;-58
2022/10/30 11:58:54;;;;;;;6.10;1.70;;;;;;;21.89;51.24;97633.41;5064356;28;20083;-58
2022/10/30 12:01:26;;;;;;;5.50;1.80;;;;;;;21.91;51.23;97633.94;5063755;28;20628;-58